Time;durP1;ratioP1;P1;durP2;ratioP2;P2;SDS_P1;SDS_P2;PMS_P1;PMS_P2;Temp;Humidity;BMP_temperature;BMP_pressure;BME280_temperature;BME280_humidity;BME280_pressure;Samples;Min_cycle;Max_cycle;Signal;HPM_P1;HPM_P2
2023/09/28 00:02:46;;;;;;;16.67;11.07;;;18.30;65.90;;;;;;4995020;28;20082;-86
2023/09/28 00:05:38;;;;;;;16.10;11.73;;;18.30;65.90;;;;;;5030761;23;20021;31
2023/09/28 00:08:04;;;;;;;17.02;11.07;;;18.20;65.90;;;;;;5017905;28;20069;-88
2023/09/28 00:10:32;;;;;;;15.98;11.63;;;18.20;65.80;;;;;;5004642;28;20013;-88
2023/09/28 00:12:59;;;;;;;19.33;12.18;;;18.20;66.00;;;;;;4981975;28;20075;-89
2023/09/28 00:15:26;;;;;;;17.65;12.10;;;18.10;66.00;;;;;;4972633;28;20030;-87
2023/09/28 00:17:52;;;;;;;19.90;13.68;;;18.10;66.10;;;;;;4976410;28;20050;-92
2023/09/28 00:20:19;;;;;;;18.55;12.70;;;18.10;66.30;;;;;;4950187;28;20030;-91
2023/09/28 00:22:53;;;;;;;20.98;13.95;;;18.10;66.50;;;;;;4979838;28;20038;-90
2023/09/28 00:25:21;;;;;;;19.77;13.60;;;18.10;66.60;;;;;;4965050;28;20027;-92
2023/09/28 00:27:50;;;;;;;18.38;13.57;;;18.00;66.50;;;;;;4961560;28;20038;-90
2023/09/28 00:30:20;;;;;;;22.95;15.43;;;18.10;66.60;;;;;;4956021;28;20137;-93
2023/09/28 00:32:48;;;;;;;21.05;14.50;;;18.10;66.60;;;;;;4964814;28;20034;-91
2023/09/28 00:35:14;;;;;;;21.23;13.55;;;18.00;66.60;;;;;;4948475;28;20038;-90
2023/09/28 00:37:41;;;;;;;23.40;14.55;;;18.00;66.50;;;;;;4957211;28;20054;-90
2023/09/28 00:40:21;;;;;;;22.75;14.77;;;18.00;66.50;;;;;;4945446;28;20026;-90
2023/09/28 00:42:52;;;;;;;21.33;14.45;;;18.00;66.60;;;;;;4972731;28;20038;-89
2023/09/28 00:45:19;;;;;;;23.67;14.93;;;18.00;66.60;;;;;;4971112;28;20030;-90
2023/09/28 00:47:46;;;;;;;21.45;13.82;;;18.00;66.80;;;;;;4961191;28;20034;-90
2023/09/28 00:50:17;;;;;;;17.70;13.38;;;18.00;66.70;;;;;;4964429;28;20046;-91
2023/09/28 00:52:46;;;;;;;24.02;14.43;;;18.00;66.90;;;;;;4979805;28;20038;-91
2023/09/28 00:55:15;;;;;;;21.65;13.82;;;17.90;67.00;;;;;;4960142;28;20058;-92
2023/09/28 00:57:46;;;;;;;19.48;13.32;;;18.00;66.90;;;;;;4948299;28;20539;-88
2023/09/28 01:00:25;;;;;;;22.70;15.13;;;18.00;66.90;;;;;;4975434;28;20033;-84
2023/09/28 01:02:53;;;;;;;21.63;14.68;;;18.00;66.90;;;;;;4975230;28;20038;-84
2023/09/28 01:05:30;;;;;;;22.13;14.35;;;18.00;66.90;;;;;;4968477;28;20043;-83
2023/09/28 01:08:22;;;;;;;21.35;13.25;;;18.00;67.60;;;;;;4961855;28;20091;-85
2023/09/28 01:10:48;;;;;;;22.30;14.63;;;17.90;67.20;;;;;;5011098;28;20030;-83
2023/09/28 01:13:17;;;;;;;20.25;14.32;;;18.00;67.10;;;;;;5009914;28;20385;-83
2023/09/28 01:15:49;;;;;;;23.00;14.60;;;18.00;67.30;;;;;;5004390;28;20120;-83
2023/09/28 01:18:17;;;;;;;20.30;13.95;;;18.00;67.30;;;;;;4989974;28;21318;-85
2023/09/28 01:20:45;;;;;;;20.45;14.55;;;17.90;67.50;;;;;;4961849;28;20419;-85
2023/09/28 01:23:11;;;;;;;26.15;15.15;;;17.90;67.50;;;;;;4993632;28;20029;-85
2023/09/28 01:25:39;;;;;;;19.00;13.90;;;17.90;67.70;;;;;;5007487;28;20030;-85
2023/09/28 01:28:10;;;;;;;22.38;14.98;;;17.90;67.70;;;;;;4975333;28;20030;-85
2023/09/28 01:30:36;;;;;;;19.65;14.23;;;18.00;67.80;;;;;;4989346;28;20038;-84
2023/09/28 01:33:02;;;;;;;19.92;14.52;;;18.00;67.80;;;;;;5006061;28;20030;-85
2023/09/28 01:35:29;;;;;;;22.55;15.02;;;18.00;67.80;;;;;;5009430;28;20124;-81
2023/09/28 01:38:00;;;;;;;23.60;15.95;;;18.00;67.80;;;;;;4977114;28;20045;-85
2023/09/28 01:40:26;;;;;;;24.80;15.02;;;18.00;67.90;;;;;;4973102;28;20088;-84
2023/09/28 01:42:52;;;;;;;25.25;15.98;;;18.00;67.80;;;;;;5004787;28;20030;-85
2023/09/28 01:45:18;;;;;;;25.05;16.65;;;18.00;68.00;;;;;;4957563;28;20031;-86
2023/09/28 01:47:44;;;;;;;22.02;15.95;;;17.90;68.10;;;;;;4985615;28;20038;-85
2023/09/28 01:50:11;;;;;;;22.95;15.25;;;17.90;68.20;;;;;;4989555;28;20076;-86
2023/09/28 01:52:37;;;;;;;25.55;15.27;;;17.90;68.20;;;;;;4957728;28;20045;-86
2023/09/28 01:55:03;;;;;;;27.48;15.40;;;17.90;68.20;;;;;;4960323;28;20037;-86
2023/09/28 01:57:29;;;;;;;25.52;15.73;;;17.90;68.30;;;;;;4977085;28;20041;-86
2023/09/28 01:59:55;;;;;;;24.83;15.27;;;17.90;68.20;;;;;;4977657;28;20164;-86
2023/09/28 02:02:21;;;;;;;26.90;16.15;;;17.90;68.30;;;;;;4985258;28;20038;-86
2023/09/28 02:04:47;;;;;;;28.63;15.73;;;17.90;68.30;;;;;;5005210;28;20029;-84
2023/09/28 02:07:13;;;;;;;24.67;16.15;;;17.90;68.40;;;;;;5007547;28;20057;-85
2023/09/28 02:09:39;;;;;;;23.52;16.15;;;17.80;68.40;;;;;;4992645;28;20524;-85
2023/09/28 02:12:07;;;;;;;25.85;15.65;;;17.90;68.50;;;;;;4994029;28;20030;-84
2023/09/28 02:14:33;;;;;;;22.65;14.93;;;17.80;68.60;;;;;;4994269;28;20037;-85
2023/09/28 02:16:59;;;;;;;26.17;15.13;;;17.80;68.70;;;;;;4991490;28;20544;-92
2023/09/28 02:19:25;;;;;;;24.38;14.32;;;17.80;68.80;;;;;;4993555;28;20042;-91
2023/09/28 02:21:54;;;;;;;25.15;15.88;;;17.80;68.70;;;;;;4965127;28;20037;-89
2023/09/28 02:24:20;;;;;;;23.40;15.95;;;17.70;68.70;;;;;;4977563;28;20122;-88
2023/09/28 02:26:47;;;;;;;26.00;15.18;;;17.70;68.90;;;;;;4973712;28;20034;-93
2023/09/28 02:29:13;;;;;;;23.65;15.07;;;17.70;69.10;;;;;;4967297;28;20485;-93
2023/09/28 02:31:42;;;;;;;25.08;15.50;;;17.70;69.10;;;;;;4961346;28;20124;-94
2023/09/28 02:34:08;;;;;;;27.45;15.30;;;17.60;69.10;;;;;;4999418;28;20120;-91
2023/09/28 02:36:35;;;;;;;25.98;15.50;;;17.60;69.30;;;;;;4975463;28;20046;-88
2023/09/28 02:39:12;;;;;;;25.42;15.10;;;17.60;69.30;;;;;;4977905;28;20034;-87
2023/09/28 02:41:38;;;;;;;22.35;14.73;;;17.60;69.40;;;;;;4975292;28;20034;-86
2023/09/28 02:44:06;;;;;;;21.60;14.05;;;17.60;69.50;;;;;;4988042;28;20044;-88
2023/09/28 02:46:31;;;;;;;23.35;14.30;;;17.60;69.40;;;;;;5004087;28;20679;-86
2023/09/28 02:48:57;;;;;;;21.60;13.38;;;17.60;69.50;;;;;;5010917;28;20623;-87
2023/09/28 02:51:24;;;;;;;23.20;13.75;;;17.50;69.50;;;;;;5009764;28;20521;-86
2023/09/28 02:53:51;;;;;;;22.90;13.68;;;17.50;69.60;;;;;;4982408;28;20048;-88
2023/09/28 02:56:17;;;;;;;20.23;13.73;;;17.50;69.70;;;;;;4991851;28;20130;-84
2023/09/28 02:58:45;;;;;;;21.70;13.95;;;17.60;69.70;;;;;;4976547;28;20591;-92
2023/09/28 03:01:11;;;;;;;22.23;14.57;;;17.60;69.60;;;;;;5001748;28;20043;-92
2023/09/28 03:03:38;;;;;;;21.55;13.27;;;17.50;69.70;;;;;;4983456;28;20042;-90
2023/09/28 03:06:05;;;;;;;21.98;13.43;;;17.50;69.70;;;;;;4997644;28;20614;-84
2023/09/28 03:08:33;;;;;;;22.88;13.98;;;17.50;69.70;;;;;;5001239;28;20029;-93
2023/09/28 03:10:59;;;;;;;18.92;13.38;;;17.50;69.80;;;;;;4977598;28;20045;-93
2023/09/28 03:13:26;;;;;;;19.95;13.25;;;17.50;69.90;;;;;;4983306;28;20034;-91
2023/09/28 03:15:53;;;;;;;20.30;13.80;;;17.50;70.00;;;;;;5011872;28;20034;-85
2023/09/28 03:18:19;;;;;;;20.77;13.70;;;17.50;70.00;;;;;;5012550;28;20061;-85
2023/09/28 03:20:45;;;;;;;16.42;12.15;;;17.50;70.00;;;;;;4995282;28;20041;-88
2023/09/28 03:23:13;;;;;;;18.27;12.75;;;17.50;70.10;;;;;;4997618;28;20040;-87
2023/09/28 03:25:39;;;;;;;18.15;12.05;;;17.50;70.10;;;;;;4977041;28;20097;-86
2023/09/28 03:28:06;;;;;;;20.45;13.20;;;17.60;70.00;;;;;;4980476;28;20033;-86
2023/09/28 03:30:32;;;;;;;21.67;13.07;;;17.60;70.00;;;;;;5006903;28;20026;-85
2023/09/28 03:32:59;;;;;;;20.48;13.13;;;17.60;70.00;;;;;;4985053;28;20042;-91
2023/09/28 03:35:28;;;;;;;17.90;12.40;;;17.60;70.00;;;;;;5005618;28;20038;-87
2023/09/28 03:37:57;;;;;;;18.35;11.98;;;17.60;70.00;;;;;;4971292;28;20100;-91
2023/09/28 03:40:33;;;;;;;20.80;12.75;;;17.60;70.10;;;;;;4999508;28;20041;-92
2023/09/28 03:42:59;;;;;;;21.23;12.50;;;17.60;70.00;;;;;;4967340;28;20044;-90
2023/09/28 03:45:25;;;;;;;18.27;11.95;;;17.60;70.00;;;;;;4983277;28;20045;-89
2023/09/28 03:47:52;;;;;;;20.23;12.20;;;17.60;70.10;;;;;;5013181;28;20034;-90
2023/09/28 03:50:22;;;;;;;19.83;12.50;;;17.60;70.00;;;;;;4995401;28;20033;-87
2023/09/28 03:52:49;;;;;;;17.55;11.68;;;17.60;70.00;;;;;;4982153;28;20025;-90
2023/09/28 03:55:21;;;;;;;19.10;12.40;;;17.60;70.00;;;;;;5015596;28;20030;-86
2023/09/28 03:57:48;;;;;;;16.35;11.02;;;17.60;70.00;;;;;;4998181;28;20042;-89
2023/09/28 04:00:16;;;;;;;16.75;11.35;;;17.60;70.00;;;;;;4996970;28;20045;-88
2023/09/28 04:02:45;;;;;;;19.40;11.25;;;17.70;70.00;;;;;;4996534;28;20037;-94
2023/09/28 04:05:11;;;;;;;17.15;11.25;;;17.70;70.10;;;;;;4999365;28;20497;-88
2023/09/28 04:07:37;;;;;;;18.83;11.10;;;17.70;70.20;;;;;;4980214;28;21444;-89
2023/09/28 04:10:03;;;;;;;17.13;10.52;;;17.70;70.20;;;;;;5002188;28;20056;-92
2023/09/28 04:12:30;;;;;;;17.35;11.13;;;17.70;70.20;;;;;;4991457;28;20036;-90
2023/09/28 04:14:56;;;;;;;15.45;10.48;;;17.70;70.30;;;;;;4962693;28;20037;-85
2023/09/28 04:17:22;;;;;;;19.83;12.15;;;17.70;70.20;;;;;;4974422;28;20037;-83
2023/09/28 04:19:48;;;;;;;18.83;11.57;;;17.70;70.10;;;;;;4992206;28;20034;-87
2023/09/28 04:22:14;;;;;;;21.40;12.07;;;17.70;70.20;;;;;;4964369;28;20037;-88
2023/09/28 04:24:40;;;;;;;17.85;11.10;;;17.80;70.20;;;;;;4955785;28;20404;-86
2023/09/28 04:27:08;;;;;;;16.33;10.93;;;17.80;70.20;;;;;;4950648;28;20050;-84
2023/09/28 04:29:35;;;;;;;23.63;11.60;;;17.80;70.20;;;;;;4957647;28;20063;-84
2023/09/28 04:32:01;;;;;;;19.17;11.15;;;17.80;70.20;;;;;;4950333;28;20043;-83
2023/09/28 04:34:29;;;;;;;16.00;11.10;;;17.80;70.20;;;;;;4971508;28;20038;-83
2023/09/28 04:36:55;;;;;;;17.60;11.35;;;17.80;70.30;;;;;;5005099;28;20112;-89
2023/09/28 04:39:24;;;;;;;16.75;11.98;;;17.80;70.30;;;;;;4983991;28;20528;-91
2023/09/28 04:41:56;;;;;;;18.75;11.18;;;17.80;70.30;;;;;;4982591;28;20041;-92
2023/09/28 04:44:23;;;;;;;17.95;11.05;;;17.80;70.20;;;;;;4996934;28;20026;-89
2023/09/28 04:46:50;;;;;;;18.33;11.50;;;17.90;70.30;;;;;;4996656;28;20033;-91
2023/09/28 04:49:19;;;;;;;16.92;11.20;;;17.90;70.30;;;;;;4998530;28;20064;-85
2023/09/28 04:51:46;;;;;;;16.33;11.35;;;17.90;70.30;;;;;;4995635;28;20060;-86
2023/09/28 04:54:12;;;;;;;20.80;11.55;;;17.90;70.40;;;;;;5009797;28;20083;-85
2023/09/28 04:56:39;;;;;;;16.02;11.50;;;18.00;70.40;;;;;;5007490;28;20058;-85
2023/09/28 04:59:05;;;;;;;15.95;11.25;;;18.00;70.40;;;;;;4979811;28;20045;-85
2023/09/28 05:01:31;;;;;;;14.63;10.60;;;18.00;70.40;;;;;;4995063;28;20044;-84
2023/09/28 05:03:57;;;;;;;16.77;11.02;;;18.10;70.50;;;;;;4968557;28;20445;-83
2023/09/28 05:06:23;;;;;;;17.45;11.05;;;18.10;70.50;;;;;;4960877;28;20065;-83
2023/09/28 05:08:52;;;;;;;16.30;11.00;;;18.10;70.50;;;;;;5005650;28;20058;-83
2023/09/28 05:11:18;;;;;;;18.73;11.32;;;18.20;70.50;;;;;;4986502;28;20049;-83
2023/09/28 05:13:44;;;;;;;19.88;13.20;;;18.20;70.40;;;;;;4985444;28;20039;-83
2023/09/28 05:16:10;;;;;;;25.38;16.92;;;18.30;70.40;;;;;;4995941;28;20120;-82
2023/09/28 05:18:36;;;;;;;19.60;13.40;;;18.30;70.40;;;;;;5002945;28;20128;-82
2023/09/28 05:21:02;;;;;;;21.90;14.25;;;18.30;70.30;;;;;;4976273;28;20084;-83
2023/09/28 05:23:28;;;;;;;21.25;14.10;;;18.40;70.40;;;;;;5005645;28;20034;-82
2023/09/28 05:25:55;;;;;;;22.35;14.07;;;18.40;70.40;;;;;;4989266;28;20121;-82
2023/09/28 05:28:21;;;;;;;20.98;13.02;;;18.50;70.30;;;;;;5006894;28;20062;-83
2023/09/28 05:30:47;;;;;;;19.27;12.43;;;18.60;70.30;;;;;;4987347;28;20061;-81
2023/09/28 05:33:13;;;;;;;17.52;11.30;;;18.80;70.10;;;;;;4978000;28;21058;-81
2023/09/28 05:35:40;;;;;;;20.02;10.68;;;19.00;69.90;;;;;;4994095;28;20026;-85
2023/09/28 05:38:06;;;;;;;14.85;10.40;;;19.10;69.70;;;;;;4992416;28;20378;-81
2023/09/28 05:40:32;;;;;;;14.60;9.82;;;19.20;69.50;;;;;;4994042;28;20022;-82
2023/09/28 05:42:58;;;;;;;14.32;10.48;;;19.30;69.20;;;;;;4956783;28;20029;-81
2023/09/28 05:45:24;;;;;;;14.10;9.63;;;19.40;69.10;;;;;;4992422;28;20386;-80
2023/09/28 05:47:50;;;;;;;13.23;9.55;;;19.60;69.00;;;;;;4976658;28;20030;-82
2023/09/28 05:50:17;;;;;;;13.35;8.68;;;19.70;68.80;;;;;;4996548;28;20037;-81
2023/09/28 05:52:45;;;;;;;14.18;7.95;;;19.80;68.70;;;;;;4979594;28;20065;-84
2023/09/28 05:55:11;;;;;;;11.48;8.10;;;19.90;68.60;;;;;;4994340;28;20034;-82
2023/09/28 05:57:37;;;;;;;13.40;9.05;;;20.00;68.40;;;;;;4993758;28;20053;-83
2023/09/28 06:00:09;;;;;;;15.30;10.90;;;20.10;68.20;;;;;;4992596;28;20037;-83
2023/09/28 06:02:36;;;;;;;19.90;13.00;;;20.20;68.00;;;;;;4988290;28;20049;-84
2023/09/28 06:05:02;;;;;;;16.90;13.00;;;20.30;67.80;;;;;;4989136;28;20560;-82
2023/09/28 06:07:28;;;;;;;15.65;11.55;;;20.50;67.70;;;;;;4991052;28;20060;-83
2023/09/28 06:09:54;;;;;;;15.52;11.90;;;20.60;67.70;;;;;;5004829;28;20038;-82
2023/09/28 06:12:21;;;;;;;19.20;11.05;;;20.70;67.50;;;;;;5008843;28;20034;-82
2023/09/28 06:14:46;;;;;;;15.32;10.15;;;20.80;67.40;;;;;;4961923;28;20052;-83
2023/09/28 06:17:13;;;;;;;14.07;9.70;;;21.00;67.40;;;;;;4982672;28;20817;-80
2023/09/28 06:19:39;;;;;;;14.18;8.73;;;21.10;67.20;;;;;;4974469;28;20032;-81
2023/09/28 06:22:09;;;;;;;11.43;7.75;;;21.20;67.00;;;;;;4957442;28;20038;-82
2023/09/28 06:24:39;;;;;;;12.88;7.38;;;21.30;66.80;;;;;;4983468;28;20042;-81
2023/09/28 06:27:05;;;;;;;10.88;7.10;;;21.40;66.70;;;;;;4969355;28;20035;-84
2023/09/28 06:29:32;;;;;;;7.63;5.75;;;21.50;66.60;;;;;;4972770;28;20031;-84
2023/09/28 06:31:58;;;;;;;7.63;5.65;;;21.60;66.30;;;;;;4952075;28;20046;-84
2023/09/28 06:34:24;;;;;;;7.78;5.47;;;21.60;66.00;;;;;;4958774;28;20039;-83
2023/09/28 06:36:53;;;;;;;6.15;5.05;;;21.70;65.80;;;;;;4983452;28;20050;-82
2023/09/28 06:39:19;;;;;;;5.55;4.90;;;21.80;66.30;;;;;;4968428;28;20030;-82
2023/09/28 06:41:45;;;;;;;6.85;4.93;;;21.90;65.60;;;;;;4966711;28;20042;-85
2023/09/28 06:44:16;;;;;;;7.43;4.65;;;22.10;65.50;;;;;;4988258;28;20122;-83
2023/09/28 06:46:44;;;;;;;6.18;4.63;;;22.10;65.80;;;;;;4967734;28;20124;-82
2023/09/28 06:49:12;;;;;;;6.97;4.55;;;22.30;65.00;;;;;;4985872;28;20022;-82
2023/09/28 06:51:38;;;;;;;6.68;4.43;;;22.30;64.80;;;;;;4975856;28;20045;-82
2023/09/28 06:54:04;;;;;;;5.72;3.95;;;22.40;64.50;;;;;;4987573;28;20045;-84
2023/09/28 06:56:30;;;;;;;5.95;4.03;;;22.50;64.30;;;;;;5002604;28;20034;-81
2023/09/28 06:58:57;;;;;;;5.47;3.80;;;22.60;64.10;;;;;;4989814;28;24481;-82
2023/09/28 07:01:23;;;;;;;4.93;3.80;;;22.70;64.00;;;;;;4988315;28;20040;-82
2023/09/28 07:03:52;;;;;;;4.47;3.97;;;22.80;63.90;;;;;;4959362;28;20034;-81
2023/09/28 07:06:21;;;;;;;5.50;3.80;;;22.90;63.70;;;;;;4971610;28;20037;-85
2023/09/28 07:08:47;;;;;;;4.80;3.30;;;23.00;63.60;;;;;;4988512;28;20061;-82
2023/09/28 07:11:13;;;;;;;5.28;3.67;;;23.00;63.20;;;;;;4957923;28;20046;-82
2023/09/28 07:13:39;;;;;;;5.60;3.70;;;23.10;63.00;;;;;;4967685;28;20405;-84
2023/09/28 07:16:07;;;;;;;4.38;3.63;;;23.20;62.70;;;;;;5004278;28;20084;-82
2023/09/28 07:18:34;;;;;;;5.20;3.47;;;23.30;62.50;;;;;;4988196;28;20707;-85
2023/09/28 07:21:00;;;;;;;4.95;3.38;;;23.30;62.50;;;;;;4966867;28;20053;-83
2023/09/28 07:23:26;;;;;;;7.93;3.53;;;23.40;62.50;;;;;;4994665;28;20041;-87
2023/09/28 07:25:52;;;;;;;5.40;3.60;;;23.50;62.50;;;;;;4990627;28;20919;-86
2023/09/28 07:28:18;;;;;;;5.10;3.60;;;23.50;62.70;;;;;;4989308;28;20030;-85
2023/09/28 07:30:44;;;;;;;5.00;3.75;;;23.70;62.90;;;;;;4959861;28;20068;-83
2023/09/28 07:33:13;;;;;;;4.53;3.60;;;23.70;62.50;;;;;;5007338;28;20157;-84
2023/09/28 07:35:39;;;;;;;5.05;3.65;;;23.80;62.10;;;;;;5005292;28;20026;-80
2023/09/28 07:38:05;;;;;;;4.47;3.72;;;23.90;62.20;;;;;;5005456;28;20026;-78
2023/09/28 07:40:31;;;;;;;4.60;3.58;;;23.90;61.70;;;;;;5007260;28;20053;-80
2023/09/28 07:43:03;;;;;;;4.43;3.33;;;24.00;62.40;;;;;;5007333;28;20535;-83
2023/09/28 07:45:32;;;;;;;5.95;3.33;;;24.00;61.80;;;;;;4962307;28;20037;-83
2023/09/28 07:52:30;;;;;;;4.28;3.20;;;24.20;60.90;;;;;;4871734;29;20048;-85
2023/09/28 07:55:13;;;;;;;7.30;4.07;;;24.20;60.90;;;;;;4886718;29;20067;-84
2023/09/28 07:57:41;;;;;;;5.07;3.58;;;24.20;61.10;;;;;;4894080;29;20076;-81
2023/09/28 08:00:18;;;;;;;5.95;3.70;;;24.30;61.20;;;;;;4892623;29;20041;-83
2023/09/28 08:03:11;;;;;;;4.65;3.45;;;24.20;61.00;;;;;;4898015;29;20060;-83
2023/09/28 08:05:37;;;;;;;3.88;2.88;;;24.30;60.50;;;;;;4883011;29;20164;-85
2023/09/28 08:08:05;;;;;;;5.90;3.78;;;24.30;60.80;;;;;;4894165;29;20046;-83
2023/09/28 08:10:33;;;;;;;6.22;3.40;;;24.40;60.80;;;;;;4911134;29;20054;-81
2023/09/28 08:13:01;;;;;;;4.45;3.03;;;24.30;60.80;;;;;;4894978;29;20032;-83
2023/09/28 08:15:35;;;;;;;4.65;2.95;;;24.40;60.80;;;;;;4902773;29;20130;-83
2023/09/28 08:18:02;;;;;;;4.85;3.17;;;24.40;60.70;;;;;;4877944;29;20503;-81
2023/09/28 08:20:28;;;;;;;5.20;3.30;;;24.40;59.60;;;;;;4893918;29;20040;-83
2023/09/28 08:22:54;;;;;;;6.03;3.50;;;24.40;59.60;;;;;;4877593;29;20060;-83
2023/09/28 08:25:20;;;;;;;4.68;3.17;;;24.40;58.90;;;;;;4879796;29;20119;-82
2023/09/28 08:28:27;;;;;;;5.72;3.15;;;24.40;59.40;;;;;;4937927;28;20081;-82
2023/09/28 08:31:04;;;;;;;5.68;3.25;;;24.40;59.50;;;;;;4949874;28;20126;-80
2023/09/28 08:33:30;;;;;;;4.38;2.90;;;24.40;58.50;;;;;;4947847;28;20105;-83
2023/09/28 08:35:56;;;;;;;4.65;3.20;;;24.40;58.80;;;;;;4971365;28;20402;-82
2023/09/28 08:38:22;;;;;;;4.75;3.20;;;24.40;57.80;;;;;;4962040;28;20142;-81
2023/09/28 08:41:08;;;;;;;5.07;2.90;;;24.40;57.90;;;;;;4940467;28;20396;-84
2023/09/28 08:44:06;;;;;;;5.25;3.10;;;24.40;58.00;;;;;;4981392;28;20043;-83
2023/09/28 08:46:39;;;;;;;4.03;3.10;;;24.40;57.80;;;;;;4927033;29;20039;-82
2023/09/28 08:49:14;;;;;;;4.60;2.88;;;24.40;57.60;;;;;;4920303;29;20039;-84
2023/09/28 08:51:40;;;;;;;4.82;3.05;;;24.40;57.70;;;;;;4912379;29;20051;-82
2023/09/28 08:54:07;;;;;;;3.55;2.92;;;24.40;57.50;;;;;;4917250;29;20138;-82
2023/09/28 08:56:42;;;;;;;4.97;3.28;;;24.40;57.30;;;;;;4908200;29;20043;-82
2023/09/28 08:59:09;;;;;;;7.25;3.50;;;24.40;57.40;;;;;;4904433;29;20051;-82
2023/09/28 09:01:36;;;;;;;6.82;3.00;;;24.40;57.40;;;;;;4896520;29;20071;-80
2023/09/28 09:04:08;;;;;;;4.07;2.90;;;24.40;57.60;;;;;;4911580;29;20098;-82
2023/09/28 09:06:36;;;;;;;6.68;3.47;;;24.40;57.70;;;;;;4938621;29;20098;-83
2023/09/28 09:09:06;;;;;;;6.00;3.35;;;24.40;57.80;;;;;;4936301;29;20040;-82
2023/09/28 09:11:52;;;;;;;3.83;3.20;;;24.40;58.40;;;;;;4946800;29;20099;-86
2023/09/28 09:14:27;;;;;;;4.55;3.30;;;24.40;57.80;;;;;;4915587;29;20525;-82
2023/09/28 09:16:54;;;;;;;4.28;3.05;;;24.40;58.00;;;;;;4903421;29;20047;-84
2023/09/28 09:19:34;;;;;;;7.15;3.63;;;24.40;58.20;;;;;;4916869;29;20129;-83
2023/09/28 09:22:00;;;;;;;4.13;3.35;;;24.40;58.10;;;;;;4915692;29;20070;-82
2023/09/28 09:24:26;;;;;;;7.32;3.88;;;24.40;57.90;;;;;;4948997;28;20097;-81
2023/09/28 09:26:53;;;;;;;5.90;3.55;;;24.40;57.80;;;;;;4973937;28;20081;-81
2023/09/28 09:29:31;;;;;;;5.55;3.03;;;24.40;57.90;;;;;;4988480;28;20033;-82
2023/09/28 09:32:05;;;;;;;5.70;3.60;;;24.40;58.20;;;;;;4979559;28;20096;-83
2023/09/28 09:34:34;;;;;;;4.05;3.33;;;24.40;58.10;;;;;;4970460;28;20037;-81
2023/09/28 09:37:15;;;;;;;5.72;3.88;;;24.40;58.00;;;;;;4948633;28;20047;-83
2023/09/28 09:39:51;;;;;;;4.93;3.45;;;24.40;58.00;;;;;;4960239;28;20035;-82
2023/09/28 09:42:29;;;;;;;5.88;3.28;;;24.40;58.70;;;;;;4968987;28;20604;-83
2023/09/28 09:45:04;;;;;;;3.83;2.97;;;24.40;58.20;;;;;;4973362;28;20472;-82
2023/09/28 09:47:48;;;;;;;4.60;3.60;;;24.40;58.30;;;;;;4981338;28;20046;-82
2023/09/28 09:50:16;;;;;;;5.20;2.92;;;24.40;58.10;;;;;;4981516;28;20040;-85
2023/09/28 09:52:48;;;;;;;5.75;3.20;;;24.40;57.80;;;;;;5009326;28;20042;-82
2023/09/28 09:55:14;;;;;;;3.67;3.10;;;24.40;57.80;;;;;;5006894;28;20036;-83
2023/09/28 09:57:47;;;;;;;3.33;2.78;;;24.40;57.80;;;;;;4992502;28;20033;-82
2023/09/28 10:00:21;;;;;;;4.40;3.22;;;24.40;57.80;;;;;;5008931;28;20038;-92
2023/09/28 10:03:10;;;;;;;4.00;3.03;;;24.40;57.30;;;;;;4961503;28;20105;-84
2023/09/28 10:06:09;;;;;;;5.70;3.95;;;24.40;57.40;;;;;;4979226;28;20266;-83
2023/09/28 10:09:28;;;;;;;5.90;3.13;;;24.40;57.60;;;;;;4978288;28;20035;-81
2023/09/28 10:11:57;;;;;;;8.23;3.33;;;24.30;57.60;;;;;;4944773;28;20093;-83
2023/09/28 10:14:32;;;;;;;3.53;2.92;;;24.30;57.60;;;;;;4966728;28;20117;-82
2023/09/28 10:18:03;;;;;;;;;;;;;;;;;;;;;
2023/09/28 10:25:15;;;;;;;6.70;4.10;;;24.20;57.50;;;;;;4962473;28;20061;-83
2023/09/28 10:27:56;;;;;;;16.92;8.45;;;24.20;57.80;;;;;;4938186;28;20108;-81
2023/09/28 10:30:48;;;;;;;;;;;;;;;;;;;;;
2023/09/28 10:37:18;;;;;;;14.90;7.35;;;24.20;58.50;;;;;;4959921;28;20035;-83
2023/09/28 10:39:54;;;;;;;9.05;5.75;;;24.20;58.60;;;;;;4975390;28;20394;-83
2023/09/28 10:42:52;;;;;;;16.08;5.60;;;24.20;58.40;;;;;;4999164;28;20054;-81
2023/09/28 10:45:27;;;;;;;8.18;5.78;;;24.20;58.50;;;;;;4957753;28;20057;-85
2023/09/28 11:14:11;;;;;;;;;;;;;;;;;;;;;
2023/09/28 11:17:09;;;;;;;5.63;3.92;;;24.20;59.90;;;;;;4831067;29;20138;-82
2023/09/28 11:20:25;;;;;;;7.32;4.10;;;24.10;60.00;;;;;;4832517;29;20046;-84
2023/09/28 11:22:58;;;;;;;5.93;3.58;;;24.10;59.90;;;;;;4831004;29;20052;-79
2023/09/28 11:25:45;;;;;;;6.63;3.83;;;24.20;59.20;;;;;;4904968;28;20044;-83
2023/09/28 11:28:11;;;;;;;6.95;3.50;;;24.10;59.00;;;;;;4977265;28;20040;-78
2023/09/28 11:30:38;;;;;;;5.82;3.60;;;24.20;59.30;;;;;;4989867;28;20058;-79
2023/09/28 11:33:05;;;;;;;8.98;4.07;;;24.20;59.30;;;;;;4990003;28;20049;-79
2023/09/28 11:35:32;;;;;;;5.20;3.58;;;24.20;59.40;;;;;;4991444;28;20061;-79
2023/09/28 11:37:59;;;;;;;7.97;3.92;;;24.10;59.10;;;;;;5006179;28;20049;-79
2023/09/28 11:40:26;;;;;;;6.45;3.85;;;24.20;59.20;;;;;;4975597;28;20145;-77
2023/09/28 11:42:53;;;;;;;5.15;3.88;;;24.20;59.10;;;;;;5006823;28;20045;-80
2023/09/28 11:45:26;;;;;;;6.43;3.35;;;24.20;59.20;;;;;;4972650;28;20034;-80
2023/09/28 11:47:53;;;;;;;4.70;3.70;;;24.20;59.00;;;;;;4963124;28;20453;-79
2023/09/28 11:50:19;;;;;;;6.60;3.55;;;24.20;58.60;;;;;;5007536;28;20044;-79
2023/09/28 11:52:47;;;;;;;6.22;3.38;;;24.20;58.70;;;;;;4977798;28;20069;-80
2023/09/28 11:55:17;;;;;;;5.22;3.80;;;24.10;58.70;;;;;;4973409;28;20084;-80
2023/09/28 11:57:44;;;;;;;4.55;3.33;;;24.20;58.70;;;;;;5006523;28;20029;-81
2023/09/28 12:00:18;;;;;;;6.25;3.55;;;24.20;58.80;;;;;;5004263;28;20034;-81
2023/09/28 12:02:46;;;;;;;3.72;3.30;;;24.10;58.70;;;;;;4977331;28;21167;-80
2023/09/28 12:05:13;;;;;;;4.82;3.35;;;24.20;58.70;;;;;;4974009;28;20389;-81
2023/09/28 12:07:43;;;;;;;7.22;3.78;;;24.20;58.60;;;;;;4989675;28;20533;-80
2023/09/28 12:10:17;;;;;;;6.57;3.90;;;24.10;58.60;;;;;;4974052;28;20450;-81
2023/09/28 12:12:44;;;;;;;6.67;3.80;;;24.20;58.00;;;;;;4960934;28;20042;-80
2023/09/28 12:15:14;;;;;;;7.90;4.28;;;24.10;58.00;;;;;;4989474;28;20041;-81
2023/09/28 12:17:41;;;;;;;7.38;3.92;;;24.20;58.00;;;;;;4958654;28;20045;-79
2023/09/28 12:20:14;;;;;;;8.10;4.25;;;24.20;57.70;;;;;;4990785;28;20057;-80
2023/09/28 12:22:42;;;;;;;4.88;4.30;;;24.10;57.70;;;;;;4989408;28;20030;-81
2023/09/28 12:25:10;;;;;;;5.85;3.50;;;24.10;57.60;;;;;;4975135;28;20076;-81
2023/09/28 12:27:39;;;;;;;6.38;3.90;;;24.10;57.70;;;;;;4986207;28;20062;-80
2023/09/28 12:30:06;;;;;;;5.28;3.58;;;24.10;57.80;;;;;;4988543;28;20030;-82
2023/09/28 12:32:32;;;;;;;5.40;3.58;;;24.10;57.60;;;;;;4957946;28;20034;-79
2023/09/28 12:35:01;;;;;;;5.65;3.80;;;24.10;57.70;;;;;;5002733;28;20041;-80
2023/09/28 12:37:27;;;;;;;6.82;3.35;;;24.10;57.60;;;;;;4988493;28;20030;-80
2023/09/28 12:39:53;;;;;;;5.00;3.65;;;24.10;57.60;;;;;;4974795;28;20034;-82
2023/09/28 12:42:24;;;;;;;13.20;3.83;;;24.10;57.70;;;;;;4977019;28;20061;-86
2023/09/28 12:45:16;;;;;;;4.85;3.80;;;24.10;57.80;;;;;;4982982;28;20034;-87
2023/09/28 12:47:43;;;;;;;8.07;3.80;;;24.10;57.90;;;;;;4992021;28;20036;-85
2023/09/28 12:50:14;;;;;;;5.30;3.38;;;24.10;57.60;;;;;;4991516;28;20034;-87
2023/09/28 12:52:52;;;;;;;4.97;3.40;;;24.10;57.30;;;;;;5004189;28;20456;-87
2023/09/28 12:55:18;;;;;;;4.00;3.20;;;24.10;57.70;;;;;;4991053;28;20032;-85
2023/09/28 12:57:46;;;;;;;5.40;3.33;;;24.10;57.80;;;;;;4988654;28;20037;-87
2023/09/28 13:00:14;;;;;;;5.63;3.45;;;24.10;57.70;;;;;;5004420;28;20041;-85
2023/09/28 13:02:46;;;;;;;5.72;3.60;;;24.10;57.90;;;;;;4996505;28;20451;-86
2023/09/28 13:05:15;;;;;;;5.90;3.88;;;24.10;57.90;;;;;;4973876;28;20030;-83
2023/09/28 13:07:42;;;;;;;4.70;3.42;;;24.10;57.80;;;;;;4977031;28;20036;-86
2023/09/28 13:10:12;;;;;;;4.82;3.38;;;24.10;57.80;;;;;;4990258;28;20026;-85
2023/09/28 13:12:39;;;;;;;4.32;3.33;;;24.10;58.10;;;;;;5007366;28;20455;-83
2023/09/28 13:15:09;;;;;;;4.47;3.30;;;24.10;58.30;;;;;;4976877;28;20076;-82
2023/09/28 13:17:38;;;;;;;5.20;3.30;;;24.10;58.30;;;;;;4991520;28;20089;-83
2023/09/28 13:20:08;;;;;;;5.15;3.20;;;24.10;58.30;;;;;;4987806;28;20057;-84
2023/09/28 13:22:34;;;;;;;4.38;3.30;;;24.00;57.80;;;;;;4973699;28;20136;-84
2023/09/28 13:25:00;;;;;;;5.82;3.40;;;24.10;57.90;;;;;;5005264;28;20030;-82
2023/09/28 13:27:26;;;;;;;5.80;3.38;;;24.10;57.80;;;;;;4984487;28;20089;-83
2023/09/28 13:29:53;;;;;;;5.88;3.70;;;24.10;57.80;;;;;;4985296;28;20124;-83
2023/09/28 13:32:23;;;;;;;8.00;3.50;;;24.10;57.70;;;;;;5005674;28;20114;-83
2023/09/28 13:34:51;;;;;;;7.05;3.53;;;24.10;57.80;;;;;;5004420;28;20025;-82